createdAt,value
2018-09-28T00:00:50.114Z,92.9
2018-09-28T00:02:50.264Z,93.0
2018-09-28T00:04:50.808Z,93.5
2018-09-28T00:06:50.202Z,93.7
2018-09-28T00:08:50.291Z,93.7
2018-09-28T00:10:50.420Z,93.9
2018-09-28T00:12:50.665Z,93.7
2018-09-28T00:14:49.840Z,93.8
2018-09-28T00:16:50.197Z,93.5
2018-09-28T00:18:50.442Z,93.7
2018-09-28T00:20:50.560Z,94.2
2018-09-28T00:22:50.735Z,94.8
2018-09-28T00:24:49.876Z,95.0
2018-09-28T00:26:50.345Z,94.7
2018-09-28T00:28:50.429Z,94.8
2018-09-28T00:30:50.585Z,94.9
2018-09-28T00:32:50.717Z,94.7
2018-09-28T00:34:50.259Z,94.6
2018-09-28T00:36:50.497Z,94.3
2018-09-28T00:38:50.816Z,94.3
2018-09-28T00:40:50.112Z,94.7
2018-09-28T00:42:50.312Z,94.9
2018-09-28T00:44:50.529Z,94.8
2018-09-28T00:46:49.877Z,95.4
2018-09-28T00:48:50.114Z,95.4
2018-09-28T00:50:50.308Z,95.0
2018-09-28T00:52:50.438Z,95.3
2018-09-28T00:54:50.766Z,95.9
2018-09-28T00:56:50.221Z,95.6
2018-09-28T00:58:50.328Z,95.4
2018-09-28T01:00:50.616Z,95.9
2018-09-28T01:02:50.654Z,95.7
2018-09-28T01:04:50.204Z,95.5
2018-09-28T01:06:50.604Z,95.5
2018-09-28T01:08:49.833Z,95.6
2018-09-28T01:10:50.000Z,95.8
2018-09-28T01:12:50.080Z,96.1
2018-09-28T01:14:50.348Z,96.7
2018-09-28T01:16:49.811Z,96.8
2018-09-28T01:18:49.992Z,97.2
2018-09-28T01:20:50.052Z,96.9
2018-09-28T01:22:50.154Z,96.9
2018-09-28T01:24:50.294Z,97.0
2018-09-28T01:26:50.477Z,97.0
2018-09-28T01:28:50.714Z,97.0
2018-09-28T01:30:49.917Z,97.2
2018-09-28T01:32:50.067Z,97.2
2018-09-28T01:34:50.496Z,97.2
2018-09-28T01:36:50.749Z,97.1
2018-09-28T01:38:50.785Z,97.1
2018-09-28T01:40:49.913Z,97.2
2018-09-28T01:42:50.156Z,97.5
2018-09-28T01:44:50.216Z,98.0
2018-09-28T01:46:50.573Z,98.3
2018-09-28T01:48:50.667Z,97.7
2018-09-28T01:50:50.719Z,97.5
2018-09-28T01:52:49.967Z,97.4
2018-09-28T01:54:50.246Z,97.4
2018-09-28T01:56:50.510Z,97.9
2018-09-28T01:58:50.645Z,97.8
2018-09-28T02:00:50.916Z,97.9
2018-09-28T02:02:49.936Z,98.1
2018-09-28T02:04:50.523Z,98.1
2018-09-28T02:06:49.806Z,98.1
2018-09-28T02:08:50.103Z,98.5
2018-09-28T02:10:50.226Z,98.5
2018-09-28T02:12:50.372Z,98.5
2018-09-28T02:14:50.400Z,98.4
2018-09-28T02:16:50.688Z,98.7
2018-09-28T02:18:49.832Z,98.5
2018-09-28T02:20:49.841Z,98.4
2018-09-28T02:22:50.056Z,98.5
2018-09-28T02:24:50.206Z,98.5
2018-09-28T02:26:50.532Z,98.8
2018-09-28T02:28:50.671Z,98.8
2018-09-28T02:30:49.856Z,98.9
2018-09-28T02:32:50.034Z,98.9
2018-09-28T02:34:50.596Z,98.7
2018-09-28T02:36:50.013Z,98.7
2018-09-28T02:38:50.225Z,99.2
2018-09-28T02:40:50.298Z,99.3
2018-09-28T02:42:50.414Z,99.3
2018-09-28T02:44:50.548Z,99.3
2018-09-28T02:46:49.963Z,99.4
2018-09-28T02:48:50.110Z,99.2
2018-09-28T02:50:50.218Z,99.3
2018-09-28T02:52:50.338Z,99.4
2018-09-28T02:54:50.468Z,99.7
2018-09-28T02:56:50.204Z,99.6
2018-09-28T02:58:50.421Z,99.7
2018-09-28T03:00:50.594Z,99.5
2018-09-28T03:02:50.715Z,99.4
2018-09-28T03:04:50.440Z,99.9
2018-09-28T03:06:50.696Z,99.9
2018-09-28T03:08:49.858Z,100.0
2018-09-28T03:10:50.066Z,100.0
2018-09-28T03:12:50.174Z,100.0
2018-09-28T03:14:50.310Z,100.0
2018-09-28T03:16:50.725Z,100.0
2018-09-28T03:18:49.925Z,100.0
2018-09-28T03:20:50.062Z,100.0
2018-09-28T03:22:50.218Z,100.0
2018-09-28T03:24:50.322Z,100.0
2018-09-28T03:26:50.772Z,100.0
2018-09-28T03:28:50.056Z,100.0
2018-09-28T03:30:50.377Z,100.0
2018-09-28T03:32:50.607Z,100.0
2018-09-28T03:34:50.241Z,100.0
2018-09-28T03:36:50.529Z,100.0
2018-09-28T03:38:49.865Z,100.0
2018-09-28T03:40:50.030Z,100.0
2018-09-28T03:42:50.236Z,100.0
2018-09-28T03:44:50.375Z,100.0
2018-09-28T03:46:50.793Z,100.0
2018-09-28T03:48:50.014Z,100.0
2018-09-28T03:50:50.148Z,100.0
2018-09-28T03:52:50.289Z,100.0
2018-09-28T03:54:50.443Z,100.0
2018-09-28T03:56:50.758Z,100.0
2018-09-28T03:58:50.107Z,100.0
2018-09-28T04:00:50.283Z,100.0
2018-09-28T04:02:50.724Z,100.0
2018-09-28T04:04:50.341Z,100.0
2018-09-28T04:06:50.787Z,100.0
2018-09-28T04:08:49.929Z,100.0
2018-09-28T04:10:50.046Z,100.0
2018-09-28T04:12:50.147Z,100.0
2018-09-28T04:14:50.307Z,100.0
2018-09-28T04:16:50.641Z,100.0
2018-09-28T04:18:49.832Z,100.0
2018-09-28T04:20:50.011Z,100.0
2018-09-28T04:22:50.196Z,100.0
2018-09-28T04:24:50.482Z,100.0
2018-09-28T04:26:50.361Z,100.0
2018-09-28T04:28:50.356Z,100.0
2018-09-28T04:30:50.570Z,100.0
2018-09-28T04:32:50.659Z,100.0
2018-09-28T04:34:50.256Z,100.0
2018-09-28T04:36:50.492Z,100.0
2018-09-28T04:38:50.646Z,100.0
2018-09-28T04:40:50.608Z,100.0
2018-09-28T04:42:50.801Z,100.0
2018-09-28T04:44:49.877Z,100.0
2018-09-28T04:46:50.119Z,100.0
2018-09-28T04:48:50.219Z,100.0
2018-09-28T04:50:50.387Z,100.0
2018-09-28T04:52:50.377Z,100.0
2018-09-28T04:54:50.566Z,100.0
2018-09-28T04:56:49.965Z,100.0
2018-09-28T04:58:50.310Z,100.0
2018-09-28T05:00:50.417Z,100.0
2018-09-28T05:02:50.650Z,100.0
2018-09-28T05:04:50.087Z,100.0
2018-09-28T05:06:50.289Z,100.0
2018-09-28T05:08:50.407Z,100.0
2018-09-28T05:10:50.384Z,100.0
2018-09-28T05:12:50.509Z,100.0
2018-09-28T05:14:50.688Z,100.0
2018-09-28T05:16:49.836Z,100.0
2018-09-28T05:18:50.122Z,100.0
2018-09-28T05:20:50.309Z,100.0
2018-09-28T05:22:50.456Z,100.0
2018-09-28T05:24:50.666Z,100.0
2018-09-28T05:26:49.930Z,100.0
2018-09-28T05:28:50.017Z,100.0
2018-09-28T05:30:54.845Z,100.0
2018-09-28T05:32:51.168Z,100.0
2018-09-28T05:34:49.848Z,100.0
2018-09-28T05:36:50.772Z,100.0
2018-09-28T05:38:49.928Z,100.0
2018-09-28T05:40:50.076Z,100.0
2018-09-28T05:42:50.172Z,100.0
2018-09-28T05:44:50.298Z,100.0
2018-09-28T05:46:50.668Z,100.0
2018-09-28T05:48:49.800Z,100.0
2018-09-28T05:50:50.005Z,100.0
2018-09-28T05:52:50.061Z,100.0
2018-09-28T05:54:50.198Z,99.9
2018-09-28T05:56:50.517Z,99.8
2018-09-28T05:58:50.773Z,99.3
2018-09-28T06:00:50.066Z,99.0
2018-09-28T06:02:50.201Z,98.5
2018-09-28T06:04:49.964Z,98.4
2018-09-28T06:06:50.359Z,98.4
2018-09-28T06:08:50.554Z,96.8
2018-09-28T06:10:50.709Z,95.2
2018-09-28T06:12:49.952Z,78
2018-09-28T06:14:50.141Z,78
2018-09-28T06:16:50.657Z,78
2018-09-28T06:18:50.210Z,78
2018-09-28T06:20:50.484Z,78
2018-09-28T06:22:50.608Z,78
2018-09-28T06:24:50.783Z,79
2018-09-28T06:26:50.186Z,79
2018-09-28T06:28:50.337Z,79
2018-09-28T06:30:50.553Z,78
2018-09-28T06:32:50.684Z,78
2018-09-28T06:34:50.451Z,78
2018-09-28T06:36:50.845Z,78
2018-09-28T06:38:50.036Z,78
2018-09-28T06:40:50.347Z,78
2018-09-28T06:42:50.443Z,78
2018-09-28T06:44:50.605Z,78
2018-09-28T06:46:50.004Z,78
2018-09-28T06:48:50.043Z,78
2018-09-28T06:50:50.199Z,78
2018-09-28T06:52:50.331Z,78
2018-09-28T06:54:50.387Z,78
2018-09-28T06:56:50.885Z,78
2018-09-28T06:58:50.016Z,78
2018-09-28T07:00:50.053Z,78
2018-09-28T07:02:50.205Z,78
2018-09-28T07:04:50.653Z,78
2018-09-28T07:06:49.861Z,78
2018-09-28T07:08:50.151Z,78
2018-09-28T07:10:50.278Z,78
2018-09-28T07:12:50.323Z,78
2018-09-28T07:14:50.449Z,78
2018-09-28T07:16:50.475Z,78
2018-09-28T07:18:50.573Z,78
2018-09-28T07:20:50.733Z,77
2018-09-28T07:22:49.995Z,77
2018-09-28T07:24:51.122Z,77
2018-09-28T07:26:50.420Z,77
2018-09-28T07:28:50.723Z,77
2018-09-28T07:30:50.715Z,77
2018-09-28T07:32:49.844Z,77
2018-09-28T07:34:50.423Z,77
2018-09-28T07:36:51.521Z,77
2018-09-28T07:38:50.775Z,76
2018-09-28T07:40:49.944Z,76
2018-09-28T07:42:50.082Z,76
2018-09-28T07:44:50.235Z,76
2018-09-28T07:46:50.532Z,76
2018-09-28T07:48:50.652Z,75
2018-09-28T07:50:49.840Z,75
2018-09-28T07:52:49.955Z,75
2018-09-28T07:54:50.106Z,74
2018-09-28T07:56:50.402Z,74
2018-09-28T07:58:50.641Z,73
2018-09-28T08:00:50.819Z,73
2018-09-28T08:02:49.990Z,73
2018-09-28T08:04:50.452Z,73
2018-09-28T08:06:50.751Z,73
2018-09-28T08:08:49.815Z,73
2018-09-28T08:10:49.920Z,73
2018-09-28T08:12:50.420Z,73
2018-09-28T08:14:50.590Z,72
2018-09-28T08:16:49.848Z,72
2018-09-28T08:18:49.968Z,72
2018-09-28T08:20:50.114Z,72
2018-09-28T08:22:50.277Z,71
2018-09-28T08:24:50.443Z,70
2018-09-28T08:26:50.001Z,70
2018-09-28T08:28:50.137Z,69
2018-09-28T08:30:50.248Z,69
2018-09-28T08:32:50.363Z,69
2018-09-28T08:34:50.757Z,69
2018-09-28T08:36:51.085Z,69
2018-09-28T08:38:50.340Z,69
2018-09-28T08:40:50.398Z,68
2018-09-28T08:42:50.561Z,67
2018-09-28T08:44:50.654Z,67
2018-09-28T08:46:50.037Z,68
2018-09-28T08:48:50.179Z,68
2018-09-28T08:50:50.619Z,68
2018-09-28T08:52:49.935Z,67
2018-09-28T08:54:50.085Z,67
2018-09-28T08:56:50.393Z,67
2018-09-28T08:58:50.594Z,67
2018-09-28T09:00:50.771Z,67
2018-09-28T09:02:49.976Z,66
2018-09-28T09:04:50.685Z,66
2018-09-28T09:06:50.298Z,65
2018-09-28T09:08:50.405Z,65
2018-09-28T09:10:50.631Z,64
2018-09-28T09:12:49.794Z,64
2018-09-28T09:14:49.965Z,65
2018-09-28T09:16:50.414Z,65
2018-09-28T09:18:50.552Z,65
2018-09-28T09:20:50.803Z,65
2018-09-28T09:22:49.930Z,65
2018-09-28T09:24:50.092Z,64
2018-09-28T09:26:50.453Z,64
2018-09-28T09:28:50.621Z,64
2018-09-28T09:30:50.742Z,64
2018-09-28T09:32:49.890Z,63
2018-09-28T09:34:50.529Z,63
2018-09-28T09:36:49.817Z,63
2018-09-28T09:38:49.987Z,63
2018-09-28T09:40:50.171Z,63
2018-09-28T09:42:50.331Z,62
2018-09-28T09:44:50.570Z,62
2018-09-28T09:46:50.205Z,62
2018-09-28T09:48:50.386Z,62
2018-09-28T09:50:50.495Z,61
2018-09-28T09:52:50.591Z,61
2018-09-28T09:54:50.722Z,62
2018-09-28T09:56:50.110Z,62
2018-09-28T09:58:50.234Z,62
2018-09-28T10:00:50.538Z,62
2018-09-28T10:02:50.725Z,61
2018-09-28T10:04:50.424Z,61
2018-09-28T10:06:49.944Z,60
2018-09-28T10:08:50.145Z,61
2018-09-28T10:10:50.261Z,60
2018-09-28T10:12:50.933Z,58
2018-09-28T10:14:50.094Z,59
2018-09-28T10:16:50.400Z,59
2018-09-28T10:18:50.542Z,57
2018-09-28T10:20:50.513Z,58
2018-09-28T10:22:50.854Z,57
2018-09-28T10:24:49.986Z,57
2018-09-28T10:26:50.056Z,57
2018-09-28T10:28:50.181Z,57
2018-09-28T10:30:50.359Z,57
2018-09-28T10:32:50.318Z,56
2018-09-28T10:34:50.613Z,56
2018-09-28T10:36:49.972Z,55
2018-09-28T10:38:49.973Z,55
2018-09-28T10:40:50.776Z,55
2018-09-28T10:42:50.048Z,55
2018-09-28T10:44:50.039Z,55
2018-09-28T10:46:50.379Z,54
2018-09-28T10:48:50.458Z,55
2018-09-28T10:50:50.755Z,55
2018-09-28T10:52:50.805Z,55
2018-09-28T10:54:50.046Z,53
2018-09-28T10:56:50.216Z,53
2018-09-28T10:58:50.915Z,54
2018-09-28T11:00:50.189Z,54
2018-09-28T11:02:50.092Z,53
2018-09-28T11:04:51.218Z,53
2018-09-28T11:06:50.678Z,52
2018-09-28T11:08:50.971Z,53
2018-09-28T11:10:50.845Z,53
2018-09-28T11:12:50.058Z,53
2018-09-28T11:14:50.182Z,52
2018-09-28T11:16:50.474Z,51
2018-09-28T11:18:50.860Z,52
2018-09-28T11:20:49.989Z,52
2018-09-28T11:22:50.035Z,51
2018-09-28T11:24:50.252Z,51
2018-09-28T11:26:50.468Z,51
2018-09-28T11:28:50.950Z,49
2018-09-28T11:30:50.128Z,49
2018-09-28T11:32:50.316Z,50
2018-09-28T11:34:50.583Z,50
2018-09-28T11:36:49.882Z,50
2018-09-28T11:38:50.396Z,50
2018-09-28T11:40:50.530Z,50
2018-09-28T11:42:50.755Z,48
2018-09-28T11:44:50.829Z,49
2018-09-28T11:46:50.220Z,47
2018-09-28T11:48:50.543Z,48
2018-09-28T11:50:50.728Z,48
2018-09-28T11:52:50.172Z,46
2018-09-28T11:54:50.498Z,46
2018-09-28T11:56:50.925Z,48
2018-09-28T11:58:50.291Z,47
2018-09-28T12:00:50.748Z,47
2018-09-28T12:02:49.995Z,45
2018-09-28T12:04:50.591Z,45
2018-09-28T12:06:51.209Z,45
2018-09-28T12:08:50.780Z,45
2018-09-28T12:10:50.582Z,46
2018-09-28T12:12:50.842Z,45
2018-09-28T12:14:50.218Z,45
2018-09-28T12:16:50.738Z,45
2018-09-28T12:18:51.852Z,47
2018-09-28T12:20:50.315Z,47
2018-09-28T12:22:50.615Z,45
2018-09-28T12:24:52.009Z,44
2018-09-28T12:26:50.383Z,43
2018-09-28T12:28:50.786Z,43
2018-09-28T12:30:51.099Z,43
2018-09-28T12:32:50.472Z,43
2018-09-28T12:34:50.216Z,42
2018-09-28T12:36:51.568Z,42
2018-09-28T12:38:50.954Z,43
2018-09-28T12:40:50.369Z,42
2018-09-28T12:42:51.812Z,42
2018-09-28T12:44:51.025Z,42
2018-09-28T12:46:50.380Z,42
2018-09-28T12:48:51.659Z,42
2018-09-28T12:50:50.750Z,42
2018-09-28T12:52:50.176Z,42
2018-09-28T12:54:51.371Z,42
2018-09-28T12:56:51.800Z,42
2018-09-28T12:58:50.212Z,42
2018-09-28T13:00:51.737Z,41
2018-09-28T13:02:51.121Z,39
2018-09-28T13:04:50.735Z,38
2018-09-28T13:06:50.747Z,38
2018-09-28T13:08:51.235Z,39
2018-09-28T13:10:50.827Z,39
2018-09-28T13:12:51.418Z,39
2018-09-28T13:14:51.781Z,39
2018-09-28T13:16:50.371Z,39
2018-09-28T13:18:51.614Z,39
2018-09-28T13:20:51.778Z,39
2018-09-28T13:22:50.169Z,37
2018-09-28T13:24:51.352Z,37
2018-09-28T13:26:51.590Z,36
2018-09-28T13:28:50.931Z,37
2018-09-28T13:30:51.052Z,38
2018-09-28T13:32:51.271Z,38
2018-09-28T13:34:50.188Z,37
2018-09-28T13:36:51.627Z,37
2018-09-28T13:38:52.156Z,37
2018-09-28T13:40:50.582Z,36
2018-09-28T13:42:50.685Z,36
2018-09-28T13:44:51.884Z,36
2018-09-28T13:46:51.261Z,37
2018-09-28T13:48:51.728Z,37
2018-09-28T13:50:50.927Z,37
2018-09-28T13:52:51.041Z,37
2018-09-28T13:54:51.216Z,36
2018-09-28T13:56:51.268Z,37
2018-09-28T13:58:50.580Z,36
2018-09-28T14:00:51.143Z,36
2018-09-28T14:02:50.464Z,36
2018-09-28T14:04:51.058Z,37
2018-09-28T14:06:51.696Z,37
2018-09-28T14:08:51.304Z,37
2018-09-28T14:10:51.771Z,37
2018-09-28T14:12:50.963Z,37
2018-09-28T14:14:51.475Z,37
2018-09-28T14:16:51.512Z,37
2018-09-28T14:18:52.013Z,37
2018-09-28T14:20:51.208Z,38
2018-09-28T14:22:51.546Z,38
2018-09-28T14:24:51.621Z,38
2018-09-28T14:26:51.206Z,38
2018-09-28T14:28:51.336Z,38
2018-09-28T14:30:51.635Z,38
2018-09-28T14:32:50.771Z,38
2018-09-28T14:34:51.706Z,39
2018-09-28T14:36:51.298Z,39
2018-09-28T14:38:50.590Z,39
2018-09-28T14:40:51.300Z,39
2018-09-28T14:42:51.091Z,39
2018-09-28T14:44:51.271Z,39
2018-09-28T14:46:51.559Z,39
2018-09-28T14:48:52.114Z,39
2018-09-28T14:50:51.760Z,40
2018-09-28T14:52:51.151Z,40
2018-09-28T14:54:51.197Z,40
2018-09-28T14:56:51.631Z,40
2018-09-28T14:58:50.800Z,40
2018-09-28T15:00:52.116Z,40
2018-09-28T15:02:51.444Z,40
2018-09-28T15:04:50.722Z,40
2018-09-28T15:06:51.426Z,40
2018-09-28T15:08:50.808Z,40
2018-09-28T15:10:50.386Z,40
2018-09-28T15:12:50.678Z,41
2018-09-28T15:14:50.993Z,40
2018-09-28T15:16:50.597Z,42
2018-09-28T15:18:51.830Z,43
2018-09-28T15:20:50.051Z,43
2018-09-28T15:22:50.392Z,42.8
2018-09-28T15:24:50.529Z,44.0
2018-09-28T15:26:49.829Z,43.8
2018-09-28T15:28:50.080Z,44.6
2018-09-28T15:30:50.259Z,44.9
2018-09-28T15:32:50.393Z,46.1
2018-09-28T15:34:50.020Z,47.8
2018-09-28T15:36:50.275Z,47.8
2018-09-28T15:38:50.404Z,48.5
2018-09-28T15:40:50.627Z,49.3
2018-09-28T15:42:50.759Z,49.7
2018-09-28T15:44:49.882Z,50.3
2018-09-28T15:46:50.237Z,50.2
2018-09-28T15:48:50.467Z,50.5
2018-09-28T15:50:50.553Z,50.9
2018-09-28T15:52:50.683Z,51.4
2018-09-28T15:54:49.865Z,51.6
2018-09-28T15:56:50.749Z,51.8
2018-09-28T15:58:50.136Z,51.4
2018-09-28T16:00:50.287Z,51.9
2018-09-28T16:02:50.431Z,52.0
2018-09-28T16:04:50.045Z,52.3
2018-09-28T16:06:50.338Z,52.2
2018-09-28T16:08:50.446Z,52.2
2018-09-28T16:10:50.582Z,52.2
2018-09-28T16:12:50.764Z,52.7
2018-09-28T16:14:49.969Z,53.4
2018-09-28T16:16:50.308Z,53.7
2018-09-28T16:18:51.469Z,54.3
2018-09-28T16:20:50.630Z,54.4
2018-09-28T16:22:50.626Z,55.3
2018-09-28T16:24:50.403Z,55.3
2018-09-28T16:26:49.904Z,55.9
2018-09-28T16:28:49.960Z,57.2
2018-09-28T16:30:50.263Z,57.2
2018-09-28T16:32:50.413Z,58.4
2018-09-28T16:34:49.812Z,58.2
2018-09-28T16:36:50.257Z,58.6
2018-09-28T16:38:50.370Z,59.4
2018-09-28T16:40:50.425Z,59.8
2018-09-28T16:42:50.570Z,60.3
2018-09-28T16:44:50.672Z,60.1
2018-09-28T16:46:49.811Z,61.2
2018-09-28T16:48:50.003Z,61.0
2018-09-28T16:50:50.135Z,61.5
2018-09-28T16:52:50.185Z,61.9
2018-09-28T16:54:50.552Z,61.6
2018-09-28T16:56:49.913Z,61.6
2018-09-28T16:58:49.956Z,62.3
2018-09-28T17:00:50.176Z,62.8
2018-09-28T17:02:50.304Z,63.4
2018-09-28T17:04:50.770Z,63.4
2018-09-28T17:06:50.009Z,64.1
2018-09-28T17:08:50.160Z,64.1
2018-09-28T17:10:50.181Z,64.7
2018-09-28T17:12:50.345Z,64.5
2018-09-28T17:14:50.542Z,64.9
2018-09-28T17:16:49.809Z,65.6
2018-09-28T17:18:50.062Z,65.7
2018-09-28T17:20:50.185Z,66.0
2018-09-28T17:22:50.339Z,66.1
2018-09-28T17:24:50.595Z,66.1
2018-09-28T17:26:49.977Z,66.5
2018-09-28T17:28:50.135Z,66.9
2018-09-28T17:30:50.302Z,67.6
2018-09-28T17:32:50.470Z,67.7
2018-09-28T17:34:50.202Z,68.0
2018-09-28T17:36:50.577Z,68.4
2018-09-28T17:38:50.706Z,68.9
2018-09-28T17:40:49.910Z,69.2
2018-09-28T17:42:50.203Z,69.1
2018-09-28T17:44:50.366Z,69.5
2018-09-28T17:46:50.626Z,69.8
2018-09-28T17:48:49.854Z,69.8
2018-09-28T17:50:50.112Z,69.7
2018-09-28T17:52:50.194Z,69.8
2018-09-28T17:54:50.426Z,69.8
2018-09-28T17:56:50.796Z,70.0
2018-09-28T17:58:50.003Z,70.1
2018-09-28T18:00:50.199Z,69.5
2018-09-28T18:02:50.318Z,69.9
2018-09-28T18:04:49.809Z,70.2
2018-09-28T18:06:50.277Z,70.2
2018-09-28T18:08:50.448Z,70.5
2018-09-28T18:10:50.600Z,70.8
2018-09-28T18:12:50.787Z,71.1
2018-09-28T18:14:49.942Z,71.1
2018-09-28T18:16:50.290Z,70.9
2018-09-28T18:18:50.437Z,70.9
2018-09-28T18:20:50.591Z,70.6
2018-09-28T18:22:50.694Z,71.2
2018-09-28T18:24:49.838Z,71.1
2018-09-28T18:26:50.247Z,71.6
2018-09-28T18:28:50.384Z,71.9
2018-09-28T18:30:50.593Z,71.9
2018-09-28T18:32:50.776Z,72.1
2018-09-28T18:34:50.325Z,72.2
2018-09-28T18:36:50.727Z,72.7
2018-09-28T18:38:49.910Z,71.9
2018-09-28T18:40:50.228Z,72.2
2018-09-28T18:42:50.480Z,71.7
2018-09-28T18:44:50.629Z,71.2
2018-09-28T18:46:49.994Z,70.4
2018-09-28T18:48:50.167Z,68.6
2018-09-28T18:50:50.283Z,66.9
2018-09-28T18:52:50.385Z,65.8
2018-09-28T18:54:50.400Z,64.7
2018-09-28T18:56:50.774Z,61.8
2018-09-28T18:58:50.462Z,61.2
2018-09-28T19:00:50.646Z,60.5
2018-09-28T19:02:49.882Z,60.5
2018-09-28T19:04:50.485Z,60.3
2018-09-28T19:06:50.722Z,60.6
2018-09-28T19:08:49.862Z,60.6
2018-09-28T19:10:50.098Z,60.2
2018-09-28T19:12:51.080Z,60.2
2018-09-28T19:14:50.269Z,60.2
2018-09-28T19:16:50.659Z,59.8
2018-09-28T19:18:49.814Z,59.8
2018-09-28T19:20:50.202Z,59.5
2018-09-28T19:22:50.359Z,59.2
2018-09-28T19:24:50.567Z,59.0
2018-09-28T19:26:49.935Z,57.9
2018-09-28T19:28:50.117Z,58.0
2018-09-28T19:30:50.800Z,57.5
2018-09-28T19:32:50.051Z,57.9
2018-09-28T19:34:50.490Z,57.3
2018-09-28T19:36:50.756Z,57.3
2018-09-28T19:38:49.945Z,56.1
2018-09-28T19:40:50.249Z,56.5
2018-09-28T19:42:50.349Z,56.5
2018-09-28T19:44:50.505Z,56.7
2018-09-28T19:46:49.853Z,56.4
2018-09-28T19:48:50.110Z,56.0
2018-09-28T19:50:50.293Z,56.2
2018-09-28T19:52:50.508Z,56.9
2018-09-28T19:54:50.603Z,56.2
2018-09-28T19:56:49.915Z,56.8
2018-09-28T19:58:50.191Z,56.5
2018-09-28T20:00:50.348Z,56.7
2018-09-28T20:02:50.529Z,56.7
2018-09-28T20:04:50.127Z,57.4
2018-09-28T20:06:50.428Z,56.4
2018-09-28T20:08:50.445Z,56.4
2018-09-28T20:10:50.630Z,57.2
2018-09-28T20:12:51.229Z,57.6
2018-09-28T20:14:51.185Z,57.4
2018-09-28T20:16:50.301Z,56.3
2018-09-28T20:18:51.072Z,57.6
2018-09-28T20:20:50.882Z,56.9
2018-09-28T20:22:50.714Z,57.3
2018-09-28T20:24:50.726Z,57.5
2018-09-28T20:26:50.612Z,57.7
2018-09-28T20:28:50.482Z,57.0
2018-09-28T20:30:50.273Z,56.5
2018-09-28T20:32:50.707Z,57.6
2018-09-28T20:34:50.610Z,57.2
2018-09-28T20:36:50.538Z,56.7
2018-09-28T20:38:50.446Z,56.9
2018-09-28T20:40:50.383Z,57.0
2018-09-28T20:42:50.318Z,56.8
2018-09-28T20:44:50.521Z,56.6
2018-09-28T20:46:50.610Z,57.0
2018-09-28T20:48:50.888Z,57.0
2018-09-28T20:50:51.122Z,57.3
2018-09-28T20:52:51.103Z,57.3
2018-09-28T20:54:50.840Z,57.8
2018-09-28T20:56:50.769Z,57.1
2018-09-28T20:58:50.581Z,57.3
2018-09-28T21:00:50.745Z,57.3
2018-09-28T21:02:50.464Z,57.8
2018-09-28T21:04:50.571Z,57.8
2018-09-28T21:06:50.472Z,56.9
2018-09-28T21:08:50.271Z,56.9
2018-09-28T21:10:50.909Z,56.8
2018-09-28T21:12:50.659Z,56.9
2018-09-28T21:14:50.417Z,57.4
2018-09-28T21:16:50.093Z,56.3
2018-09-28T21:18:50.197Z,55.5
2018-09-28T21:20:50.297Z,55.0
2018-09-28T21:22:50.448Z,55.0
2018-09-28T21:24:50.579Z,55.6
2018-09-28T21:26:49.985Z,55.2
2018-09-28T21:28:50.529Z,55.7
2018-09-28T21:30:50.674Z,55.9
2018-09-28T21:32:49.832Z,55.9
2018-09-28T21:34:50.418Z,56.5
2018-09-28T21:36:50.736Z,56.4
2018-09-28T21:38:49.850Z,56.3
2018-09-28T21:40:50.107Z,56.6
2018-09-28T21:42:50.278Z,56.3
2018-09-28T21:44:50.465Z,56.3
2018-09-28T21:46:49.956Z,56.3
2018-09-28T21:48:50.144Z,57.0
2018-09-28T21:50:50.269Z,57.0
2018-09-28T21:52:50.297Z,57.1
2018-09-28T21:54:50.430Z,57.0
2018-09-28T21:56:50.703Z,57.7
2018-09-28T21:58:50.777Z,57.9
2018-09-28T22:00:49.936Z,57.5
2018-09-28T22:02:50.148Z,57.2
2018-09-28T22:04:51.191Z,57.6
2018-09-28T22:06:50.354Z,57.6
2018-09-28T22:08:50.340Z,57.6
2018-09-28T22:10:50.339Z,57.2
2018-09-28T22:12:50.393Z,57.8
2018-09-28T22:14:50.530Z,58.3
2018-09-28T22:16:49.961Z,58.7
2018-09-28T22:18:50.146Z,58.9
2018-09-28T22:20:50.312Z,58.7
2018-09-28T22:22:50.418Z,58.6
2018-09-28T22:24:50.553Z,59.2
2018-09-28T22:26:50.751Z,59.6
2018-09-28T22:28:49.965Z,59.1
2018-09-28T22:30:50.209Z,58.4
2018-09-28T22:32:50.312Z,58.4
2018-09-28T22:34:50.723Z,60.5
2018-09-28T22:36:50.080Z,60.8
2018-09-28T22:38:50.214Z,60.6
2018-09-28T22:40:50.362Z,60.7
2018-09-28T22:42:50.565Z,60.2
2018-09-28T22:44:50.683Z,60.6
2018-09-28T22:46:49.987Z,61.7
2018-09-28T22:48:50.148Z,61.3
2018-09-28T22:50:50.370Z,62.1
2018-09-28T22:52:50.470Z,61.7
2018-09-28T22:54:50.714Z,62.3
2018-09-28T22:56:50.100Z,63.0
2018-09-28T22:58:50.230Z,63.6
2018-09-28T23:00:50.484Z,63.1
2018-09-28T23:02:50.652Z,63.6
2018-09-28T23:04:50.167Z,64.8
2018-09-28T23:06:50.554Z,65.3
2018-09-28T23:08:50.638Z,65.5
2018-09-28T23:10:50.113Z,65.0
2018-09-28T23:12:50.316Z,65.6
2018-09-28T23:14:50.501Z,65.6
2018-09-28T23:16:49.862Z,65.8
2018-09-28T23:18:50.037Z,66.0
2018-09-28T23:20:50.182Z,66.5
2018-09-28T23:22:50.295Z,65.4
2018-09-28T23:24:50.492Z,67.0
2018-09-28T23:26:50.767Z,66.3
2018-09-28T23:28:50.010Z,67.5
2018-09-28T23:30:50.191Z,67.8
2018-09-28T23:32:50.426Z,67.3
2018-09-28T23:34:50.059Z,67.4
2018-09-28T23:36:50.315Z,67.4
2018-09-28T23:38:50.512Z,67.7
2018-09-28T23:40:50.717Z,67.7
2018-09-28T23:42:49.833Z,67.1
2018-09-28T23:44:50.057Z,67.2
2018-09-28T23:46:50.327Z,67.9
2018-09-28T23:48:50.547Z,68.0
2018-09-28T23:50:50.844Z,68.1
2018-09-28T23:52:50.035Z,68.0
2018-09-28T23:54:50.116Z,68.9
2018-09-28T23:56:50.336Z,71.0
2018-09-28T23:58:50.450Z,70.9
